Overton RPC :: 100-A

liberation: 2021-09-25  07:00     latitude: 34.861244     longitude: -85.505535 58 birds
# LOFT PRING MILES ARRIVAL SPEED ToWin
1 VALHALLA LOFTS IF21-VALH-0192 107.559 2021-09-25 09:24:19.080 1311.718 00:00:00
2 VALHALLA LOFTS IF21-E-1598 107.559 2021-09-25 09:24:20.259 1311.539 00:00:01
3 VALHALLA LOFTS IF21-E-1600 107.559 2021-09-25 09:24:21.333 1311.376 00:00:02
4 VALHALLA LOFTS AU21-ARPU-8989 107.559 2021-09-25 09:24:22.724 1311.166 00:00:04
5 VALHALLA LOFTS AU21-ARPU-8997 107.559 2021-09-25 09:24:38.800 1308.737 00:00:20
6 VALHALLA LOFTS IF21-VALH-0169 107.559 2021-09-25 09:24:42.178 1308.228 00:00:23
7 VALHALLA LOFTS AU21-ARPU-9000 107.559 2021-09-25 09:24:43.758 1307.990 00:00:25
8 VALHALLA LOFTS IF21-VALH-0118 107.559 2021-09-25 09:24:45.822 1307.679 00:00:27
9 VALHALLA LOFTS IF21-VALH-0153 107.559 2021-09-25 09:24:48.634 1307.256 00:00:30
10 VALHALLA LOFTS IF21-E-1496 107.559 2021-09-25 09:24:50.345 1306.999 00:00:31
11 VALHALLA LOFTS IF21-VALH-0139 107.559 2021-09-25 09:24:57.466 1305.928 00:00:38
12 VALHALLA LOFTS IF21-E-1416 107.559 2021-09-25 09:25:00.178 1305.521 00:00:41
13 VALHALLA LOFTS IF21-VALH-0149 107.559 2021-09-25 09:25:03.445 1305.031 00:00:44
14 VALHALLA LOFTS IF21-VALH-0166 107.559 2021-09-25 09:25:10.639 1303.953 00:00:52
15 VALHALLA LOFTS IF21-VALH-0175 107.559 2021-09-25 09:25:14.641 1303.355 00:00:56
16 VALHALLA LOFTS IF21-VALH-0130 107.559 2021-09-25 09:25:15.624 1303.208 00:00:57
17 VALHALLA LOFTS IF21-E-1443 107.559 2021-09-25 09:25:48.820 1298.263 00:01:30
18 VALHALLA LOFTS IF21-VALH-0128 107.559 2021-09-25 09:26:09.328 1295.227 00:01:50
19 VALHALLA LOFTS IF21-E-1411 107.559 2021-09-25 09:26:11.710 1294.875 00:01:53
20 VALHALLA LOFTS IF21-VALH-0182 107.559 2021-09-25 09:26:21.427 1293.442 00:02:02
21 VALHALLA LOFTS IF21-VALH-0123 107.559 2021-09-25 09:26:28.123 1292.457 00:02:09
22 VALHALLA LOFTS IF21-E-1495 107.559 2021-09-25 09:26:41.917 1290.431 00:02:23
23 VALHALLA LOFTS IF21-VALH-0101 107.559 2021-09-25 09:27:17.356 1285.256 00:02:58
24 VALHALLA LOFTS IF21-VALH-0107 107.559 2021-09-25 09:27:52.050 1280.230 00:03:33
25 VALHALLA LOFTS IF21-E-1498 107.559 2021-09-25 09:28:07.317 1278.031 00:03:48
26 VALHALLA LOFTS IF21-E-1414 107.559 2021-09-25 09:28:15.711 1276.825 00:03:57
27 VALHALLA LOFTS IF21-E-1497 107.559 2021-09-25 09:33:00.025 1237.281 00:08:41
28 MONTEJANO LOFT IF21-E-1440 103.511 2021-09-25 09:36:01.270 1167.655 00:17:08
29 HONEY FARM LOFT IF21-ORP-0526 106.823 2021-09-25 09:41:39.767 1162.972 00:18:20
30 HONEY FARM LOFT AU21-NASH-9544 106.823 2021-09-25 09:41:45.030 1162.341 00:18:25
31 HONEY FARM LOFT AU21-NASH-9559 106.823 2021-09-25 09:41:56.050 1161.023 00:18:36
32 HONEY FARM LOFT IF21-FOYS-5483 106.823 2021-09-25 09:50:27.668 1102.945 00:27:08
33 MONTEJANO LOFT IF21-E-1330 103.511 2021-09-25 09:46:05.123 1096.899 00:27:12
34 MONTEJANO LOFT AU21-ARPU-8992 103.511 2021-09-25 09:46:12.172 1096.123 00:27:19
35 VALHALLA LOFTS AU21-BREW-2154 107.559 2021-09-25 09:54:33.735 1084.453 00:30:15
36 VALHALLA LOFTS IF21-E-1442 107.559 2021-09-25 09:55:19.072 1079.779 00:31:00
37 VALHALLA LOFTS AU21-POP-0537 107.559 2021-09-25 10:02:17.473 1038.473 00:37:58
38 VALHALLA LOFTS IF21-VALH-0103 107.559 2021-09-25 11:08:40.923 761.231 01:44:22
39 MONTEJANO LOFT IF21-ORP-0404 103.511 2021-09-25 11:00:31.727 757.410 01:41:39
40 HONEY FARM LOFT IF21-ORP-0529 106.823 2021-09-25 11:49:52.295 648.595 02:26:32
41 MONTEJANO LOFT IF21-E-1316 103.511 2021-09-25 11:52:34.347 622.679 02:33:41
42 LET IT GO LOFT IF21-E-1405 109.108 2021-09-25 12:10:29.590 618.467 02:44:06
43 VALHALLA LOFTS AU21-BREW-2151 107.559 2021-09-25 12:20:42.472 590.271 02:56:23
44 MONTEJANO LOFT IF21-E-1433 103.511 2021-09-25 12:56:33.244 510.943 03:37:40
45 HONEY FARM LOFT IF21-FOYS-5468 106.823 2021-09-25 13:59:20.716 448.340 04:36:01
46 MONTEJANO LOFT IF21-E-1432 103.511 2021-09-25 13:48:14.541 446.252 04:29:21
47 MONTEJANO LOFT IF21-E-1596 103.511 2021-09-25 16:03:41.055 335.082 06:44:48
LET IT GO LOFT IF21-E-1401 0 0000-00-00 00:00:00.000 0.000 00:00:00
LET IT GO LOFT IF21-E-1402 0 0000-00-00 00:00:00.000 0.000 00:00:00
LET IT GO LOFT IF21-E-1459 0 0000-00-00 00:00:00.000 0.000 00:00:00
MONTEJANO LOFT IF21-E-1335 0 0000-00-00 00:00:00.000 0.000 00:00:00
MONTEJANO LOFT IF21-E-1380 0 0000-00-00 00:00:00.000 0.000 00:00:00
MONTEJANO LOFT IF21-E-1418 0 0000-00-00 00:00:00.000 0.000 00:00:00
MONTEJANO LOFT IF21-E-1431 0 0000-00-00 00:00:00.000 0.000 00:00:00
MONTEJANO LOFT IF21-E-1439 0 0000-00-00 00:00:00.000 0.000 00:00:00
MONTEJANO LOFT IF21-E-1589 0 0000-00-00 00:00:00.000 0.000 00:00:00
MONTEJANO LOFT IF21-E-1597 0 0000-00-00 00:00:00.000 0.000 00:00:00
VALHALLA LOFTS IF21-VALH-0168 0 0000-00-00 00:00:00.000 0.000 00:00:00